sensor_id;sensor_type;location;lat;lon;timestamp;P1;durP1;ratioP1;P2;durP2;ratioP2
12263;SDS011;6194;49.010;8.414;2023-04-16T00:01:20;27.80;;;23.03;;
12263;SDS011;6194;49.010;8.414;2023-04-16T00:03:46;25.70;;;21.27;;
12263;SDS011;6194;49.010;8.414;2023-04-16T00:06:12;28.07;;;23.23;;
12263;SDS011;6194;49.010;8.414;2023-04-16T00:08:37;26.80;;;22.57;;
12263;SDS011;6194;49.010;8.414;2023-04-16T00:11:04;26.40;;;22.67;;
12263;SDS011;6194;49.010;8.414;2023-04-16T00:13:30;27.23;;;22.20;;
12263;SDS011;6194;49.010;8.414;2023-04-16T00:15:56;26.47;;;21.67;;
12263;SDS011;6194;49.010;8.414;2023-04-16T00:18:23;28.73;;;22.77;;
12263;SDS011;6194;49.010;8.414;2023-04-16T00:20:48;27.13;;;21.47;;
12263;SDS011;6194;49.010;8.414;2023-04-16T00:23:14;26.23;;;22.10;;
12263;SDS011;6194;49.010;8.414;2023-04-16T00:25:40;27.40;;;22.70;;
12263;SDS011;6194;49.010;8.414;2023-04-16T00:28:06;27.47;;;22.47;;
12263;SDS011;6194;49.010;8.414;2023-04-16T00:30:32;22.60;;;18.73;;
12263;SDS011;6194;49.010;8.414;2023-04-16T00:32:59;26.67;;;21.53;;
12263;SDS011;6194;49.010;8.414;2023-04-16T00:35:24;26.03;;;21.40;;
12263;SDS011;6194;49.010;8.414;2023-04-16T00:37:50;24.13;;;19.97;;
12263;SDS011;6194;49.010;8.414;2023-04-16T00:40:16;24.77;;;20.03;;
12263;SDS011;6194;49.010;8.414;2023-04-16T00:42:42;23.23;;;19.70;;
12263;SDS011;6194;49.010;8.414;2023-04-16T00:45:07;24.53;;;19.73;;
12263;SDS011;6194;49.010;8.414;2023-04-16T00:47:34;21.57;;;18.83;;
12263;SDS011;6194;49.010;8.414;2023-04-16T00:50:00;24.37;;;21.70;;
12263;SDS011;6194;49.010;8.414;2023-04-16T00:52:32;26.27;;;21.93;;
12263;SDS011;6194;49.010;8.414;2023-04-16T00:54:59;27.27;;;22.33;;
12263;SDS011;6194;49.010;8.414;2023-04-16T00:57:25;27.97;;;22.40;;
12263;SDS011;6194;49.010;8.414;2023-04-16T00:59:51;29.10;;;23.67;;
12263;SDS011;6194;49.010;8.414;2023-04-16T01:02:18;32.97;;;26.80;;
12263;SDS011;6194;49.010;8.414;2023-04-16T01:04:44;30.83;;;24.27;;
12263;SDS011;6194;49.010;8.414;2023-04-16T01:07:10;29.00;;;24.10;;
12263;SDS011;6194;49.010;8.414;2023-04-16T01:09:36;30.17;;;22.77;;
12263;SDS011;6194;49.010;8.414;2023-04-16T01:12:01;30.90;;;23.13;;
12263;SDS011;6194;49.010;8.414;2023-04-16T01:14:27;27.83;;;23.03;;
12263;SDS011;6194;49.010;8.414;2023-04-16T01:16:53;27.70;;;23.13;;
12263;SDS011;6194;49.010;8.414;2023-04-16T01:19:18;28.17;;;22.73;;
12263;SDS011;6194;49.010;8.414;2023-04-16T01:21:44;28.27;;;22.63;;
12263;SDS011;6194;49.010;8.414;2023-04-16T01:24:10;25.73;;;21.87;;
12263;SDS011;6194;49.010;8.414;2023-04-16T01:26:36;27.87;;;22.53;;
12263;SDS011;6194;49.010;8.414;2023-04-16T01:29:01;29.03;;;23.87;;
12263;SDS011;6194;49.010;8.414;2023-04-16T01:31:27;29.13;;;23.37;;
12263;SDS011;6194;49.010;8.414;2023-04-16T01:33:52;27.70;;;22.30;;
12263;SDS011;6194;49.010;8.414;2023-04-16T01:36:18;27.17;;;22.87;;
12263;SDS011;6194;49.010;8.414;2023-04-16T01:38:44;27.30;;;22.33;;
12263;SDS011;6194;49.010;8.414;2023-04-16T01:41:09;25.80;;;22.07;;
12263;SDS011;6194;49.010;8.414;2023-04-16T01:43:35;26.33;;;21.17;;
12263;SDS011;6194;49.010;8.414;2023-04-16T01:46:14;27.90;;;21.77;;
12263;SDS011;6194;49.010;8.414;2023-04-16T01:48:44;26.17;;;22.93;;
12263;SDS011;6194;49.010;8.414;2023-04-16T01:51:10;28.87;;;22.63;;
12263;SDS011;6194;49.010;8.414;2023-04-16T01:53:35;26.00;;;22.10;;
12263;SDS011;6194;49.010;8.414;2023-04-16T01:56:01;28.63;;;23.00;;
12263;SDS011;6194;49.010;8.414;2023-04-16T01:58:27;27.43;;;23.10;;
12263;SDS011;6194;49.010;8.414;2023-04-16T02:00:54;27.67;;;23.03;;
12263;SDS011;6194;49.010;8.414;2023-04-16T02:03:19;27.77;;;22.97;;
12263;SDS011;6194;49.010;8.414;2023-04-16T02:05:48;27.07;;;22.47;;
12263;SDS011;6194;49.010;8.414;2023-04-16T02:08:14;26.57;;;22.17;;
12263;SDS011;6194;49.010;8.414;2023-04-16T02:10:39;27.37;;;22.73;;
12263;SDS011;6194;49.010;8.414;2023-04-16T02:13:05;25.90;;;22.47;;
12263;SDS011;6194;49.010;8.414;2023-04-16T02:15:31;26.70;;;22.87;;
12263;SDS011;6194;49.010;8.414;2023-04-16T02:17:56;26.70;;;21.83;;
12263;SDS011;6194;49.010;8.414;2023-04-16T02:20:22;26.37;;;22.77;;
12263;SDS011;6194;49.010;8.414;2023-04-16T02:22:47;26.70;;;23.07;;
12263;SDS011;6194;49.010;8.414;2023-04-16T02:25:13;26.40;;;22.53;;
12263;SDS011;6194;49.010;8.414;2023-04-16T02:27:38;27.03;;;22.37;;
12263;SDS011;6194;49.010;8.414;2023-04-16T02:30:04;27.77;;;22.97;;
12263;SDS011;6194;49.010;8.414;2023-04-16T02:32:30;27.33;;;23.07;;
12263;SDS011;6194;49.010;8.414;2023-04-16T02:34:56;28.83;;;23.30;;
12263;SDS011;6194;49.010;8.414;2023-04-16T02:37:22;26.37;;;22.70;;
12263;SDS011;6194;49.010;8.414;2023-04-16T02:39:48;28.70;;;23.77;;
12263;SDS011;6194;49.010;8.414;2023-04-16T02:42:14;27.40;;;22.93;;
12263;SDS011;6194;49.010;8.414;2023-04-16T02:44:40;28.70;;;23.40;;
12263;SDS011;6194;49.010;8.414;2023-04-16T02:47:06;26.73;;;22.20;;
12263;SDS011;6194;49.010;8.414;2023-04-16T02:49:31;27.70;;;23.33;;
12263;SDS011;6194;49.010;8.414;2023-04-16T02:51:57;26.43;;;22.53;;
12263;SDS011;6194;49.010;8.414;2023-04-16T02:54:23;25.90;;;22.57;;
12263;SDS011;6194;49.010;8.414;2023-04-16T02:56:48;26.40;;;22.70;;
12263;SDS011;6194;49.010;8.414;2023-04-16T02:59:14;30.23;;;22.30;;
12263;SDS011;6194;49.010;8.414;2023-04-16T03:01:39;26.53;;;21.90;;
12263;SDS011;6194;49.010;8.414;2023-04-16T03:04:05;26.73;;;22.53;;
12263;SDS011;6194;49.010;8.414;2023-04-16T03:06:31;26.00;;;22.20;;
12263;SDS011;6194;49.010;8.414;2023-04-16T03:08:56;27.33;;;22.73;;
12263;SDS011;6194;49.010;8.414;2023-04-16T03:11:22;29.43;;;22.87;;
12263;SDS011;6194;49.010;8.414;2023-04-16T03:13:47;27.50;;;22.20;;
12263;SDS011;6194;49.010;8.414;2023-04-16T03:16:13;27.30;;;23.10;;
12263;SDS011;6194;49.010;8.414;2023-04-16T03:18:39;27.10;;;23.13;;
12263;SDS011;6194;49.010;8.414;2023-04-16T03:21:05;27.60;;;22.83;;
12263;SDS011;6194;49.010;8.414;2023-04-16T03:23:30;28.03;;;22.83;;
12263;SDS011;6194;49.010;8.414;2023-04-16T03:25:56;27.03;;;22.87;;
12263;SDS011;6194;49.010;8.414;2023-04-16T03:28:21;29.50;;;22.13;;
12263;SDS011;6194;49.010;8.414;2023-04-16T03:30:50;29.03;;;22.70;;
12263;SDS011;6194;49.010;8.414;2023-04-16T03:33:17;26.60;;;22.20;;
12263;SDS011;6194;49.010;8.414;2023-04-16T03:35:43;27.60;;;22.10;;
12263;SDS011;6194;49.010;8.414;2023-04-16T03:38:09;30.23;;;22.83;;
12263;SDS011;6194;49.010;8.414;2023-04-16T03:40:34;25.87;;;20.63;;
12263;SDS011;6194;49.010;8.414;2023-04-16T03:43:00;26.60;;;22.20;;
12263;SDS011;6194;49.010;8.414;2023-04-16T03:45:25;25.90;;;21.27;;
12263;SDS011;6194;49.010;8.414;2023-04-16T03:47:51;25.77;;;20.30;;
12263;SDS011;6194;49.010;8.414;2023-04-16T03:50:17;26.10;;;21.47;;
12263;SDS011;6194;49.010;8.414;2023-04-16T03:52:43;27.37;;;20.80;;
12263;SDS011;6194;49.010;8.414;2023-04-16T03:55:10;25.33;;;20.40;;
12263;SDS011;6194;49.010;8.414;2023-04-16T03:57:37;25.03;;;20.33;;
12263;SDS011;6194;49.010;8.414;2023-04-16T04:00:02;25.77;;;20.10;;
12263;SDS011;6194;49.010;8.414;2023-04-16T04:02:28;24.13;;;20.10;;
12263;SDS011;6194;49.010;8.414;2023-04-16T04:04:54;22.97;;;18.80;;
12263;SDS011;6194;49.010;8.414;2023-04-16T04:07:20;24.03;;;19.73;;
12263;SDS011;6194;49.010;8.414;2023-04-16T04:09:45;24.03;;;19.70;;
12263;SDS011;6194;49.010;8.414;2023-04-16T04:12:11;24.73;;;19.93;;
12263;SDS011;6194;49.010;8.414;2023-04-16T04:14:37;23.67;;;19.23;;
12263;SDS011;6194;49.010;8.414;2023-04-16T04:17:04;24.37;;;19.53;;
12263;SDS011;6194;49.010;8.414;2023-04-16T04:19:30;22.13;;;18.07;;
12263;SDS011;6194;49.010;8.414;2023-04-16T04:21:55;22.73;;;18.47;;
12263;SDS011;6194;49.010;8.414;2023-04-16T04:24:21;21.43;;;18.07;;
12263;SDS011;6194;49.010;8.414;2023-04-16T04:26:46;21.40;;;17.93;;
12263;SDS011;6194;49.010;8.414;2023-04-16T04:29:12;21.00;;;17.87;;
12263;SDS011;6194;49.010;8.414;2023-04-16T04:31:38;23.23;;;18.00;;
12263;SDS011;6194;49.010;8.414;2023-04-16T04:34:03;23.40;;;17.43;;
12263;SDS011;6194;49.010;8.414;2023-04-16T04:36:29;21.97;;;17.50;;
12263;SDS011;6194;49.010;8.414;2023-04-16T04:38:55;21.07;;;17.30;;
12263;SDS011;6194;49.010;8.414;2023-04-16T04:41:20;19.93;;;16.73;;
12263;SDS011;6194;49.010;8.414;2023-04-16T04:43:46;19.97;;;16.33;;
12263;SDS011;6194;49.010;8.414;2023-04-16T04:46:11;18.93;;;15.83;;
12263;SDS011;6194;49.010;8.414;2023-04-16T04:48:37;21.53;;;17.17;;
12263;SDS011;6194;49.010;8.414;2023-04-16T04:51:03;17.13;;;15.33;;
12263;SDS011;6194;49.010;8.414;2023-04-16T04:53:28;19.43;;;16.37;;
12263;SDS011;6194;49.010;8.414;2023-04-16T04:55:54;17.93;;;16.00;;
12263;SDS011;6194;49.010;8.414;2023-04-16T04:58:20;17.40;;;15.30;;
12263;SDS011;6194;49.010;8.414;2023-04-16T05:00:45;17.43;;;15.43;;
12263;SDS011;6194;49.010;8.414;2023-04-16T05:03:11;16.80;;;15.07;;
12263;SDS011;6194;49.010;8.414;2023-04-16T05:05:39;18.43;;;15.40;;
12263;SDS011;6194;49.010;8.414;2023-04-16T05:08:05;16.23;;;14.43;;
12263;SDS011;6194;49.010;8.414;2023-04-16T05:10:31;18.63;;;15.10;;
12263;SDS011;6194;49.010;8.414;2023-04-16T05:12:56;17.20;;;15.23;;
12263;SDS011;6194;49.010;8.414;2023-04-16T05:15:22;17.00;;;14.40;;
12263;SDS011;6194;49.010;8.414;2023-04-16T05:17:48;16.43;;;14.30;;
12263;SDS011;6194;49.010;8.414;2023-04-16T05:20:13;16.03;;;14.33;;
12263;SDS011;6194;49.010;8.414;2023-04-16T05:22:39;16.47;;;14.63;;
12263;SDS011;6194;49.010;8.414;2023-04-16T05:25:05;16.87;;;13.93;;
12263;SDS011;6194;49.010;8.414;2023-04-16T05:27:31;17.30;;;14.60;;
12263;SDS011;6194;49.010;8.414;2023-04-16T05:29:56;17.87;;;15.13;;
12263;SDS011;6194;49.010;8.414;2023-04-16T05:32:24;18.10;;;14.80;;
12263;SDS011;6194;49.010;8.414;2023-04-16T05:34:50;18.60;;;14.07;;
12263;SDS011;6194;49.010;8.414;2023-04-16T05:37:16;17.07;;;14.80;;
12263;SDS011;6194;49.010;8.414;2023-04-16T05:39:41;16.67;;;14.87;;
12263;SDS011;6194;49.010;8.414;2023-04-16T05:42:07;19.17;;;15.07;;
12263;SDS011;6194;49.010;8.414;2023-04-16T05:44:33;18.10;;;15.07;;
12263;SDS011;6194;49.010;8.414;2023-04-16T05:46:58;16.00;;;14.23;;
12263;SDS011;6194;49.010;8.414;2023-04-16T05:49:24;16.60;;;14.80;;
12263;SDS011;6194;49.010;8.414;2023-04-16T05:51:49;16.73;;;14.33;;
12263;SDS011;6194;49.010;8.414;2023-04-16T05:54:15;15.83;;;13.87;;
12263;SDS011;6194;49.010;8.414;2023-04-16T05:56:40;15.67;;;13.90;;
12263;SDS011;6194;49.010;8.414;2023-04-16T05:59:06;16.93;;;14.47;;
12263;SDS011;6194;49.010;8.414;2023-04-16T06:01:31;16.17;;;14.47;;
12263;SDS011;6194;49.010;8.414;2023-04-16T06:03:57;15.10;;;12.50;;
12263;SDS011;6194;49.010;8.414;2023-04-16T06:06:22;15.70;;;13.13;;
12263;SDS011;6194;49.010;8.414;2023-04-16T06:08:48;15.67;;;13.93;;
12263;SDS011;6194;49.010;8.414;2023-04-16T06:11:14;16.83;;;13.20;;
12263;SDS011;6194;49.010;8.414;2023-04-16T06:13:40;15.10;;;13.27;;
12263;SDS011;6194;49.010;8.414;2023-04-16T06:16:06;14.63;;;13.03;;
12263;SDS011;6194;49.010;8.414;2023-04-16T06:18:32;15.20;;;13.33;;
12263;SDS011;6194;49.010;8.414;2023-04-16T06:20:57;14.40;;;12.90;;
12263;SDS011;6194;49.010;8.414;2023-04-16T06:23:23;14.67;;;12.87;;
12263;SDS011;6194;49.010;8.414;2023-04-16T06:25:49;14.60;;;12.57;;
12263;SDS011;6194;49.010;8.414;2023-04-16T06:28:14;13.43;;;11.90;;
12263;SDS011;6194;49.010;8.414;2023-04-16T06:30:40;12.87;;;11.57;;
12263;SDS011;6194;49.010;8.414;2023-04-16T06:33:05;16.30;;;12.33;;
12263;SDS011;6194;49.010;8.414;2023-04-16T06:35:31;12.80;;;11.33;;
12263;SDS011;6194;49.010;8.414;2023-04-16T06:37:57;12.90;;;11.60;;
12263;SDS011;6194;49.010;8.414;2023-04-16T06:40:22;12.60;;;11.30;;
12263;SDS011;6194;49.010;8.414;2023-04-16T06:42:48;12.60;;;11.30;;
12263;SDS011;6194;49.010;8.414;2023-04-16T06:45:14;12.33;;;11.07;;
12263;SDS011;6194;49.010;8.414;2023-04-16T06:47:39;13.60;;;11.07;;
12263;SDS011;6194;49.010;8.414;2023-04-16T06:50:05;12.43;;;10.93;;
12263;SDS011;6194;49.010;8.414;2023-04-16T06:52:31;12.13;;;10.70;;
12263;SDS011;6194;49.010;8.414;2023-04-16T06:54:57;12.43;;;11.13;;
12263;SDS011;6194;49.010;8.414;2023-04-16T06:57:23;11.30;;;10.10;;
12263;SDS011;6194;49.010;8.414;2023-04-16T06:59:48;10.13;;;9.13;;
12263;SDS011;6194;49.010;8.414;2023-04-16T07:02:14;10.60;;;9.50;;
12263;SDS011;6194;49.010;8.414;2023-04-16T07:04:39;9.93;;;9.00;;
12263;SDS011;6194;49.010;8.414;2023-04-16T07:07:05;9.90;;;8.90;;
12263;SDS011;6194;49.010;8.414;2023-04-16T07:09:30;9.47;;;8.47;;
12263;SDS011;6194;49.010;8.414;2023-04-16T07:11:56;9.23;;;8.33;;
12263;SDS011;6194;49.010;8.414;2023-04-16T07:14:22;9.30;;;8.40;;
12263;SDS011;6194;49.010;8.414;2023-04-16T07:16:47;9.10;;;8.20;;
12263;SDS011;6194;49.010;8.414;2023-04-16T07:19:13;8.60;;;7.80;;
12263;SDS011;6194;49.010;8.414;2023-04-16T07:21:38;9.10;;;8.20;;
12263;SDS011;6194;49.010;8.414;2023-04-16T07:24:06;9.00;;;8.20;;
12263;SDS011;6194;49.010;8.414;2023-04-16T07:26:31;8.60;;;7.80;;
12263;SDS011;6194;49.010;8.414;2023-04-16T07:28:57;8.37;;;7.57;;
12263;SDS011;6194;49.010;8.414;2023-04-16T07:31:22;8.90;;;8.00;;
12263;SDS011;6194;49.010;8.414;2023-04-16T07:33:48;9.33;;;8.43;;
12263;SDS011;6194;49.010;8.414;2023-04-16T07:36:14;9.20;;;8.30;;
12263;SDS011;6194;49.010;8.414;2023-04-16T07:38:39;8.90;;;8.00;;
12263;SDS011;6194;49.010;8.414;2023-04-16T07:41:05;9.20;;;8.17;;
12263;SDS011;6194;49.010;8.414;2023-04-16T07:43:30;8.27;;;7.47;;
12263;SDS011;6194;49.010;8.414;2023-04-16T07:45:56;9.10;;;8.13;;
12263;SDS011;6194;49.010;8.414;2023-04-16T07:48:21;9.13;;;8.23;;
12263;SDS011;6194;49.010;8.414;2023-04-16T07:50:47;9.27;;;8.30;;
12263;SDS011;6194;49.010;8.414;2023-04-16T07:53:14;9.47;;;8.47;;
12263;SDS011;6194;49.010;8.414;2023-04-16T07:55:39;9.10;;;8.20;;
12263;SDS011;6194;49.010;8.414;2023-04-16T07:58:05;8.87;;;7.97;;
12263;SDS011;6194;49.010;8.414;2023-04-16T08:00:31;8.57;;;7.77;;
12263;SDS011;6194;49.010;8.414;2023-04-16T08:02:57;8.60;;;7.80;;
12263;SDS011;6194;49.010;8.414;2023-04-16T08:05:23;8.77;;;7.87;;
12263;SDS011;6194;49.010;8.414;2023-04-16T08:07:48;8.27;;;7.47;;
12263;SDS011;6194;49.010;8.414;2023-04-16T08:10:14;9.20;;;8.20;;
12263;SDS011;6194;49.010;8.414;2023-04-16T08:12:39;8.83;;;8.00;;
12263;SDS011;6194;49.010;8.414;2023-04-16T08:15:05;9.33;;;8.00;;
12263;SDS011;6194;49.010;8.414;2023-04-16T08:17:31;9.00;;;8.10;;
12263;SDS011;6194;49.010;8.414;2023-04-16T08:19:58;9.53;;;8.60;;
12263;SDS011;6194;49.010;8.414;2023-04-16T08:22:24;9.23;;;8.33;;
12263;SDS011;6194;49.010;8.414;2023-04-16T08:24:50;9.70;;;8.10;;
12263;SDS011;6194;49.010;8.414;2023-04-16T08:27:16;8.87;;;8.00;;
12263;SDS011;6194;49.010;8.414;2023-04-16T08:29:42;8.90;;;7.97;;
12263;SDS011;6194;49.010;8.414;2023-04-16T08:32:07;7.87;;;7.07;;
12263;SDS011;6194;49.010;8.414;2023-04-16T08:34:34;9.03;;;7.90;;
12263;SDS011;6194;49.010;8.414;2023-04-16T08:37:01;8.47;;;7.67;;
12263;SDS011;6194;49.010;8.414;2023-04-16T08:39:26;8.53;;;7.70;;
12263;SDS011;6194;49.010;8.414;2023-04-16T08:41:52;7.87;;;7.13;;
12263;SDS011;6194;49.010;8.414;2023-04-16T08:44:25;8.70;;;7.90;;
12263;SDS011;6194;49.010;8.414;2023-04-16T08:46:52;9.23;;;7.33;;
12263;SDS011;6194;49.010;8.414;2023-04-16T08:49:23;8.50;;;7.60;;
12263;SDS011;6194;49.010;8.414;2023-04-16T08:51:50;8.13;;;7.33;;
12263;SDS011;6194;49.010;8.414;2023-04-16T08:54:41;8.30;;;7.50;;
12263;SDS011;6194;49.010;8.414;2023-04-16T08:57:10;8.70;;;7.57;;
12263;SDS011;6194;49.010;8.414;2023-04-16T08:59:38;7.70;;;7.00;;
12263;SDS011;6194;49.010;8.414;2023-04-16T09:02:06;9.40;;;8.37;;
12263;SDS011;6194;49.010;8.414;2023-04-16T09:04:36;8.60;;;7.80;;
12263;SDS011;6194;49.010;8.414;2023-04-16T09:07:02;8.07;;;7.27;;
12263;SDS011;6194;49.010;8.414;2023-04-16T09:09:29;8.63;;;7.70;;
12263;SDS011;6194;49.010;8.414;2023-04-16T09:11:55;8.23;;;7.27;;
12263;SDS011;6194;49.010;8.414;2023-04-16T09:14:21;8.03;;;7.30;;
12263;SDS011;6194;49.010;8.414;2023-04-16T09:16:48;8.23;;;7.43;;
12263;SDS011;6194;49.010;8.414;2023-04-16T09:19:15;8.43;;;7.40;;
12263;SDS011;6194;49.010;8.414;2023-04-16T09:21:41;8.43;;;7.40;;
12263;SDS011;6194;49.010;8.414;2023-04-16T09:24:09;8.80;;;7.57;;
12263;SDS011;6194;49.010;8.414;2023-04-16T09:26:35;8.37;;;7.50;;
12263;SDS011;6194;49.010;8.414;2023-04-16T09:29:01;8.63;;;7.57;;
12263;SDS011;6194;49.010;8.414;2023-04-16T09:31:27;8.43;;;7.63;;
12263;SDS011;6194;49.010;8.414;2023-04-16T09:34:02;9.47;;;8.27;;
12263;SDS011;6194;49.010;8.414;2023-04-16T09:36:30;8.63;;;7.73;;
12263;SDS011;6194;49.010;8.414;2023-04-16T09:38:56;8.43;;;7.63;;
12263;SDS011;6194;49.010;8.414;2023-04-16T09:41:28;9.10;;;7.17;;
12263;SDS011;6194;49.010;8.414;2023-04-16T09:43:58;8.20;;;7.40;;
12263;SDS011;6194;49.010;8.414;2023-04-16T09:46:34;8.97;;;8.03;;
12263;SDS011;6194;49.010;8.414;2023-04-16T09:49:12;8.07;;;7.27;;
12263;SDS011;6194;49.010;8.414;2023-04-16T09:51:40;8.53;;;7.73;;
12263;SDS011;6194;49.010;8.414;2023-04-16T09:54:11;8.57;;;7.67;;
12263;SDS011;6194;49.010;8.414;2023-04-16T09:56:43;8.23;;;7.43;;
12263;SDS011;6194;49.010;8.414;2023-04-16T09:59:16;8.10;;;7.30;;
12263;SDS011;6194;49.010;8.414;2023-04-16T10:01:42;8.87;;;7.20;;
12263;SDS011;6194;49.010;8.414;2023-04-16T10:04:10;8.53;;;7.60;;
12263;SDS011;6194;49.010;8.414;2023-04-16T10:06:36;8.40;;;7.60;;
12263;SDS011;6194;49.010;8.414;2023-04-16T10:09:01;8.07;;;7.27;;
12263;SDS011;6194;49.010;8.414;2023-04-16T10:11:32;9.70;;;8.70;;
12263;SDS011;6194;49.010;8.414;2023-04-16T10:13:58;9.47;;;8.47;;
12263;SDS011;6194;49.010;8.414;2023-04-16T10:16:24;9.27;;;8.20;;
12263;SDS011;6194;49.010;8.414;2023-04-16T10:18:50;10.07;;;8.50;;
12263;SDS011;6194;49.010;8.414;2023-04-16T10:21:16;9.30;;;8.40;;
12263;SDS011;6194;49.010;8.414;2023-04-16T10:23:43;9.03;;;8.10;;
12263;SDS011;6194;49.010;8.414;2023-04-16T10:26:09;8.27;;;7.47;;
12263;SDS011;6194;49.010;8.414;2023-04-16T10:28:35;9.80;;;8.07;;
12263;SDS011;6194;49.010;8.414;2023-04-16T10:31:02;10.80;;;8.00;;
12263;SDS011;6194;49.010;8.414;2023-04-16T10:33:33;8.37;;;7.47;;
12263;SDS011;6194;49.010;8.414;2023-04-16T10:38:33;9.30;;;8.23;;
12263;SDS011;6194;49.010;8.414;2023-04-16T10:41:02;7.87;;;7.07;;
12263;SDS011;6194;49.010;8.414;2023-04-16T10:43:29;8.87;;;7.97;;
12263;SDS011;6194;49.010;8.414;2023-04-16T10:45:55;8.40;;;7.53;;
12263;SDS011;6194;49.010;8.414;2023-04-16T10:48:22;9.00;;;8.10;;
12263;SDS011;6194;49.010;8.414;2023-04-16T10:50:52;8.30;;;7.50;;
12263;SDS011;6194;49.010;8.414;2023-04-16T10:53:24;8.47;;;7.67;;
12263;SDS011;6194;49.010;8.414;2023-04-16T10:58:33;8.67;;;7.70;;
12263;SDS011;6194;49.010;8.414;2023-04-16T11:01:09;8.70;;;7.80;;
12263;SDS011;6194;49.010;8.414;2023-04-16T11:03:46;8.97;;;8.07;;
12263;SDS011;6194;49.010;8.414;2023-04-16T11:06:16;9.50;;;8.50;;
12263;SDS011;6194;49.010;8.414;2023-04-16T11:08:49;9.17;;;8.27;;
12263;SDS011;6194;49.010;8.414;2023-04-16T11:11:16;9.23;;;8.33;;
12263;SDS011;6194;49.010;8.414;2023-04-16T11:13:43;9.57;;;8.67;;
12263;SDS011;6194;49.010;8.414;2023-04-16T11:16:12;8.47;;;7.67;;
12263;SDS011;6194;49.010;8.414;2023-04-16T11:18:39;8.83;;;7.97;;
12263;SDS011;6194;49.010;8.414;2023-04-16T11:21:08;9.40;;;8.40;;
12263;SDS011;6194;49.010;8.414;2023-04-16T11:23:48;11.27;;;8.23;;
12263;SDS011;6194;49.010;8.414;2023-04-16T11:28:51;9.73;;;8.73;;
12263;SDS011;6194;49.010;8.414;2023-04-16T11:31:17;9.23;;;8.33;;
12263;SDS011;6194;49.010;8.414;2023-04-16T11:33:43;10.27;;;9.17;;
12263;SDS011;6194;49.010;8.414;2023-04-16T11:36:09;11.00;;;9.87;;
12263;SDS011;6194;49.010;8.414;2023-04-16T11:38:35;11.40;;;9.87;;
12263;SDS011;6194;49.010;8.414;2023-04-16T11:41:01;11.10;;;9.70;;
12263;SDS011;6194;49.010;8.414;2023-04-16T11:43:27;11.27;;;10.07;;
12263;SDS011;6194;49.010;8.414;2023-04-16T11:45:57;11.40;;;9.83;;
12263;SDS011;6194;49.010;8.414;2023-04-16T11:48:24;12.63;;;10.77;;
12263;SDS011;6194;49.010;8.414;2023-04-16T11:50:56;12.07;;;10.03;;
12263;SDS011;6194;49.010;8.414;2023-04-16T11:53:22;12.53;;;9.77;;
12263;SDS011;6194;49.010;8.414;2023-04-16T11:55:48;11.67;;;9.77;;
12263;SDS011;6194;49.010;8.414;2023-04-16T11:58:14;10.90;;;9.80;;
12263;SDS011;6194;49.010;8.414;2023-04-16T12:00:40;10.70;;;9.60;;
12263;SDS011;6194;49.010;8.414;2023-04-16T12:03:06;11.37;;;9.63;;
12263;SDS011;6194;49.010;8.414;2023-04-16T12:05:33;10.80;;;9.53;;
12263;SDS011;6194;49.010;8.414;2023-04-16T12:08:01;10.77;;;9.67;;
12263;SDS011;6194;49.010;8.414;2023-04-16T12:10:35;11.20;;;10.00;;
12263;SDS011;6194;49.010;8.414;2023-04-16T12:13:16;9.40;;;8.40;;
12263;SDS011;6194;49.010;8.414;2023-04-16T12:15:42;9.47;;;8.53;;
12263;SDS011;6194;49.010;8.414;2023-04-16T12:18:09;9.43;;;8.43;;
12263;SDS011;6194;49.010;8.414;2023-04-16T12:20:38;9.63;;;8.53;;
12263;SDS011;6194;49.010;8.414;2023-04-16T12:23:07;9.30;;;8.33;;
12263;SDS011;6194;49.010;8.414;2023-04-16T12:25:33;9.97;;;8.17;;
12263;SDS011;6194;49.010;8.414;2023-04-16T12:27:59;8.23;;;7.43;;
12263;SDS011;6194;49.010;8.414;2023-04-16T12:30:25;9.00;;;8.10;;
12263;SDS011;6194;49.010;8.414;2023-04-16T12:35:42;9.73;;;8.73;;
12263;SDS011;6194;49.010;8.414;2023-04-16T12:38:08;13.83;;;10.53;;
12263;SDS011;6194;49.010;8.414;2023-04-16T12:40:35;10.63;;;9.50;;
12263;SDS011;6194;49.010;8.414;2023-04-16T12:43:01;10.60;;;9.50;;
12263;SDS011;6194;49.010;8.414;2023-04-16T12:45:27;11.00;;;9.57;;
12263;SDS011;6194;49.010;8.414;2023-04-16T12:47:52;12.23;;;9.60;;
12263;SDS011;6194;49.010;8.414;2023-04-16T12:50:19;12.27;;;9.90;;
12263;SDS011;6194;49.010;8.414;2023-04-16T12:52:45;11.60;;;9.60;;
12263;SDS011;6194;49.010;8.414;2023-04-16T12:55:11;12.20;;;9.63;;
12263;SDS011;6194;49.010;8.414;2023-04-16T12:57:38;11.97;;;9.10;;
12263;SDS011;6194;49.010;8.414;2023-04-16T13:00:03;11.13;;;9.80;;
12263;SDS011;6194;49.010;8.414;2023-04-16T13:02:34;10.53;;;9.43;;
12263;SDS011;6194;49.010;8.414;2023-04-16T13:05:00;11.90;;;10.13;;
12263;SDS011;6194;49.010;8.414;2023-04-16T13:07:26;11.17;;;10.00;;
12263;SDS011;6194;49.010;8.414;2023-04-16T13:09:52;11.50;;;10.30;;
12263;SDS011;6194;49.010;8.414;2023-04-16T13:12:17;14.13;;;10.53;;
12263;SDS011;6194;49.010;8.414;2023-04-16T13:14:43;13.67;;;11.30;;
12263;SDS011;6194;49.010;8.414;2023-04-16T13:17:09;12.73;;;10.50;;
12263;SDS011;6194;49.010;8.414;2023-04-16T13:19:34;13.20;;;10.60;;
12263;SDS011;6194;49.010;8.414;2023-04-16T13:22:00;12.57;;;10.27;;
12263;SDS011;6194;49.010;8.414;2023-04-16T13:24:26;11.63;;;9.97;;
12263;SDS011;6194;49.010;8.414;2023-04-16T13:26:51;11.37;;;9.50;;
12263;SDS011;6194;49.010;8.414;2023-04-16T13:29:21;13.03;;;10.60;;
12263;SDS011;6194;49.010;8.414;2023-04-16T13:31:47;13.97;;;11.13;;
12263;SDS011;6194;49.010;8.414;2023-04-16T13:34:12;14.27;;;11.00;;
12263;SDS011;6194;49.010;8.414;2023-04-16T13:36:38;13.50;;;11.60;;
12263;SDS011;6194;49.010;8.414;2023-04-16T13:39:04;14.43;;;11.53;;
12263;SDS011;6194;49.010;8.414;2023-04-16T13:41:34;14.20;;;10.80;;
12263;SDS011;6194;49.010;8.414;2023-04-16T13:44:00;12.03;;;10.57;;
12263;SDS011;6194;49.010;8.414;2023-04-16T13:46:25;13.70;;;10.73;;
12263;SDS011;6194;49.010;8.414;2023-04-16T13:48:52;11.03;;;9.93;;
12263;SDS011;6194;49.010;8.414;2023-04-16T13:51:18;13.53;;;10.20;;
12263;SDS011;6194;49.010;8.414;2023-04-16T13:53:44;12.93;;;10.00;;
12263;SDS011;6194;49.010;8.414;2023-04-16T13:56:09;12.67;;;11.23;;
12263;SDS011;6194;49.010;8.414;2023-04-16T13:58:35;11.70;;;9.93;;
12263;SDS011;6194;49.010;8.414;2023-04-16T14:01:01;12.83;;;10.30;;
12263;SDS011;6194;49.010;8.414;2023-04-16T14:03:27;11.47;;;10.00;;
12263;SDS011;6194;49.010;8.414;2023-04-16T14:05:52;13.33;;;10.83;;
12263;SDS011;6194;49.010;8.414;2023-04-16T14:08:18;11.60;;;10.40;;
12263;SDS011;6194;49.010;8.414;2023-04-16T14:10:46;12.13;;;10.07;;
12263;SDS011;6194;49.010;8.414;2023-04-16T14:13:12;11.30;;;9.50;;
12263;SDS011;6194;49.010;8.414;2023-04-16T14:15:37;11.93;;;9.90;;
12263;SDS011;6194;49.010;8.414;2023-04-16T14:18:03;11.20;;;9.60;;
12263;SDS011;6194;49.010;8.414;2023-04-16T14:20:29;11.73;;;10.30;;
12263;SDS011;6194;49.010;8.414;2023-04-16T14:22:55;11.83;;;9.80;;
12263;SDS011;6194;49.010;8.414;2023-04-16T14:25:21;13.43;;;10.30;;
12263;SDS011;6194;49.010;8.414;2023-04-16T14:27:47;12.80;;;10.57;;
12263;SDS011;6194;49.010;8.414;2023-04-16T14:30:12;13.30;;;9.50;;
12263;SDS011;6194;49.010;8.414;2023-04-16T14:32:38;10.87;;;9.43;;
12263;SDS011;6194;49.010;8.414;2023-04-16T14:35:04;11.47;;;9.90;;
12263;SDS011;6194;49.010;8.414;2023-04-16T14:37:30;12.27;;;9.53;;
12263;SDS011;6194;49.010;8.414;2023-04-16T14:39:59;10.83;;;9.10;;
12263;SDS011;6194;49.010;8.414;2023-04-16T14:42:25;12.03;;;9.00;;
12263;SDS011;6194;49.010;8.414;2023-04-16T14:44:51;12.53;;;10.07;;
12263;SDS011;6194;49.010;8.414;2023-04-16T14:47:16;11.47;;;9.87;;
12263;SDS011;6194;49.010;8.414;2023-04-16T14:49:42;12.93;;;10.63;;